Edwards Air Force Base
KEDW : now visible

Airfield :











YOU CAN JOIN US ON...

 
LOGIN :

Register | Disclaimer

   EN    FR    IT 

 









Legend :    VFR   Marginal VFR   IFR   Intensive IFR   Very Intensive IFR
Visi :
Ceiling :
>= 8 km
>= 3000ft
5 to 8 km
1000 to 3000 ft
1500m to 5 km
500 to 1000 ft
800 to 1500m
200 to 500 ft
< 800m
< 200 ft
Symbols :   Thunderstorms  Fog  Heavy snow  Heavy precipitations  Wind > 20 kt






- Airport Elevation : 2312 ft


KEDW - Edwards Air Force Base

CURRENT METAR :
  • 241358Z 19005KT 50SM BKN200 13/09 A2996 RMK AO2A SLP135 T01320094

EXPIRED METARs :
  • 241258Z 18004KT 30SM BKN100 13/10 A2996 RMK AO2A SLP132 T01330095
  • 241158Z AUTO 00000KT 10SM CLR 14/09 A2995 RMK AO2 SLP126 T01380094 10152 20133 55001

TAF TAF KEDW
Valid from the 24 at 13:00 until the 25 at 19:00 UTC


241300Z 2413/2519 VRB06KT 9999 BKN200 QNH2989INS
BECMG 2416/2417 25015G25KT 9999 BKN200 520009 QNH2989INS
BECMG 2503/2504 25012G18KT 9999 BKN200 520009 QNH2987INS
BECMG 2514/2515 25015G25KT 9999 BKN200 520009 QNH2985INS TX25/2422Z TN11/2413Z
KZLA FIR / North America



MET'MAP, your aeronautical weather chart ! - Copyright ORBIFLY December 2007 - Disclaimer

ORBIFLY MET'MAP TEAM :

Programming & Development : Alexandra Zaïnal
Concept & original design : Baudouin d'Aumeries
Assistance for programming : Marc-Olivier Méhu
Technical & hardware support : Manuel Goepfert

Contact : metmap@orbifly.com




SOURCES & CREDITS :

   NOAA       Earth
Advisory